Pixley, California
Current Conditions -  °F | °C
As of 7:35 PM on Saturday 24 Jan 2015 (Local Time) from KPTV Reporting Station
Overcast Overcast  
Wind Chill: 45°   Ceiling: 100
Heat Index: 45°   Visibility: 0mi
Dew Point: 41°   Wind: 0mph
Humidity: 87%   Direction: NA
Pressure: 30.19"   Gusts: NA
Location:  35.97°N, 119.29°W
Report Text: KPTV 250335Z AUTO 00000KT M1/4SM OVC001 07/05 A3019 RMK AO1
Loading
Personal Weather Stations






























Interactive Weather Map New forecast layout! Learn more

10-Day Weather Forecast

Advertisements
Track Severe Weather on mobile